sensor_id;sensor_type;location;lat;lon;timestamp;P1;durP1;ratioP1;P2;durP2;ratioP2
15153;SDS011;7677;41.896;25.004;2022-10-01T00:01:16;1.95;;;1.85;;
15153;SDS011;7677;41.896;25.004;2022-10-01T00:03:44;2.40;;;2.22;;
15153;SDS011;7677;41.896;25.004;2022-10-01T00:06:13;2.13;;;2.03;;
15153;SDS011;7677;41.896;25.004;2022-10-01T00:08:42;2.25;;;2.05;;
15153;SDS011;7677;41.896;25.004;2022-10-01T00:11:13;2.55;;;1.85;;
15153;SDS011;7677;41.896;25.004;2022-10-01T00:13:42;2.35;;;2.10;;
15153;SDS011;7677;41.896;25.004;2022-10-01T00:16:10;2.05;;;1.95;;
15153;SDS011;7677;41.896;25.004;2022-10-01T00:18:41;2.22;;;2.03;;
15153;SDS011;7677;41.896;25.004;2022-10-01T00:21:10;2.10;;;2.00;;
15153;SDS011;7677;41.896;25.004;2022-10-01T00:23:38;2.50;;;2.30;;
15153;SDS011;7677;41.896;25.004;2022-10-01T00:26:09;2.63;;;2.42;;
15153;SDS011;7677;41.896;25.004;2022-10-01T00:28:37;2.22;;;2.03;;
15153;SDS011;7677;41.896;25.004;2022-10-01T00:31:05;1.83;;;1.73;;
15153;SDS011;7677;41.896;25.004;2022-10-01T00:33:33;2.63;;;2.42;;
15153;SDS011;7677;41.896;25.004;2022-10-01T00:36:02;2.30;;;2.10;;
15153;SDS011;7677;41.896;25.004;2022-10-01T00:38:29;1.90;;;1.80;;
15153;SDS011;7677;41.896;25.004;2022-10-01T00:40:57;2.25;;;2.05;;
15153;SDS011;7677;41.896;25.004;2022-10-01T00:43:25;1.80;;;1.70;;
15153;SDS011;7677;41.896;25.004;2022-10-01T00:45:54;2.73;;;2.03;;
15153;SDS011;7677;41.896;25.004;2022-10-01T00:48:23;2.42;;;2.00;;
15153;SDS011;7677;41.896;25.004;2022-10-01T00:50:51;2.05;;;1.95;;
15153;SDS011;7677;41.896;25.004;2022-10-01T00:53:19;2.42;;;2.08;;
15153;SDS011;7677;41.896;25.004;2022-10-01T00:55:48;2.10;;;1.90;;
15153;SDS011;7677;41.896;25.004;2022-10-01T00:58:19;2.08;;;1.90;;
15153;SDS011;7677;41.896;25.004;2022-10-01T01:00:47;2.35;;;2.15;;
15153;SDS011;7677;41.896;25.004;2022-10-01T01:03:15;2.78;;;1.98;;
15153;SDS011;7677;41.896;25.004;2022-10-01T01:05:42;2.30;;;2.10;;
15153;SDS011;7677;41.896;25.004;2022-10-01T01:08:12;2.20;;;2.00;;
15153;SDS011;7677;41.896;25.004;2022-10-01T01:10:43;3.03;;;2.28;;
15153;SDS011;7677;41.896;25.004;2022-10-01T01:13:16;2.10;;;2.00;;
15153;SDS011;7677;41.896;25.004;2022-10-01T01:15:52;2.05;;;1.90;;
15153;SDS011;7677;41.896;25.004;2022-10-01T01:18:22;3.10;;;2.80;;
15153;SDS011;7677;41.896;25.004;2022-10-01T01:21:11;3.60;;;1.95;;
15153;SDS011;7677;41.896;25.004;2022-10-01T01:26:37;2.05;;;1.95;;
15153;SDS011;7677;41.896;25.004;2022-10-01T01:29:13;2.13;;;2.00;;
15153;SDS011;7677;41.896;25.004;2022-10-01T01:31:45;2.27;;;2.07;;
15153;SDS011;7677;41.896;25.004;2022-10-01T01:34:14;2.22;;;2.03;;
15153;SDS011;7677;41.896;25.004;2022-10-01T01:36:45;2.10;;;2.00;;
15153;SDS011;7677;41.896;25.004;2022-10-01T01:39:15;2.15;;;1.95;;
15153;SDS011;7677;41.896;25.004;2022-10-01T01:41:44;2.50;;;2.10;;
15153;SDS011;7677;41.896;25.004;2022-10-01T01:44:18;2.22;;;2.13;;
15153;SDS011;7677;41.896;25.004;2022-10-01T01:46:49;2.75;;;2.13;;
15153;SDS011;7677;41.896;25.004;2022-10-01T01:49:17;2.58;;;1.85;;
15153;SDS011;7677;41.896;25.004;2022-10-01T01:51:48;2.50;;;2.30;;
15153;SDS011;7677;41.896;25.004;2022-10-01T01:54:18;2.30;;;2.10;;
15153;SDS011;7677;41.896;25.004;2022-10-01T01:56:45;2.40;;;2.20;;
15153;SDS011;7677;41.896;25.004;2022-10-01T01:59:13;2.35;;;2.15;;
15153;SDS011;7677;41.896;25.004;2022-10-01T02:01:45;2.17;;;1.98;;
15153;SDS011;7677;41.896;25.004;2022-10-01T02:04:17;2.78;;;2.30;;
15153;SDS011;7677;41.896;25.004;2022-10-01T02:06:56;1.90;;;1.80;;
15153;SDS011;7677;41.896;25.004;2022-10-01T02:09:31;2.55;;;2.35;;
15153;SDS011;7677;41.896;25.004;2022-10-01T02:12:04;2.65;;;2.45;;
15153;SDS011;7677;41.896;25.004;2022-10-01T02:14:37;2.60;;;2.40;;
15153;SDS011;7677;41.896;25.004;2022-10-01T02:17:12;2.45;;;2.22;;
15153;SDS011;7677;41.896;25.004;2022-10-01T02:19:43;2.28;;;2.08;;
15153;SDS011;7677;41.896;25.004;2022-10-01T02:22:15;2.97;;;2.42;;
15153;SDS011;7677;41.896;25.004;2022-10-01T02:24:46;2.03;;;1.83;;
15153;SDS011;7677;41.896;25.004;2022-10-01T02:27:16;4.40;;;1.95;;
15153;SDS011;7677;41.896;25.004;2022-10-01T02:29:46;2.40;;;2.20;;
15153;SDS011;7677;41.896;25.004;2022-10-01T02:32:16;2.22;;;2.10;;
15153;SDS011;7677;41.896;25.004;2022-10-01T02:34:44;2.30;;;2.10;;
15153;SDS011;7677;41.896;25.004;2022-10-01T02:37:13;2.33;;;2.13;;
15153;SDS011;7677;41.896;25.004;2022-10-01T02:39:42;2.90;;;2.58;;
15153;SDS011;7677;41.896;25.004;2022-10-01T02:42:11;2.42;;;2.22;;
15153;SDS011;7677;41.896;25.004;2022-10-01T02:44:39;2.25;;;2.03;;
15153;SDS011;7677;41.896;25.004;2022-10-01T02:47:10;2.63;;;2.30;;
15153;SDS011;7677;41.896;25.004;2022-10-01T02:49:42;2.20;;;2.00;;
15153;SDS011;7677;41.896;25.004;2022-10-01T02:52:11;2.80;;;2.30;;
15153;SDS011;7677;41.896;25.004;2022-10-01T02:54:43;2.40;;;2.20;;
15153;SDS011;7677;41.896;25.004;2022-10-01T02:57:12;2.30;;;2.10;;
15153;SDS011;7677;41.896;25.004;2022-10-01T02:59:49;2.57;;;2.37;;
15153;SDS011;7677;41.896;25.004;2022-10-01T03:02:16;2.43;;;2.23;;
15153;SDS011;7677;41.896;25.004;2022-10-01T03:04:45;2.43;;;2.23;;
15153;SDS011;7677;41.896;25.004;2022-10-01T03:07:12;3.03;;;2.30;;
15153;SDS011;7677;41.896;25.004;2022-10-01T03:09:40;2.47;;;2.27;;
15153;SDS011;7677;41.896;25.004;2022-10-01T03:12:07;1.95;;;1.85;;
15153;SDS011;7677;41.896;25.004;2022-10-01T03:14:34;2.70;;;2.17;;
15153;SDS011;7677;41.896;25.004;2022-10-01T03:17:03;2.05;;;1.90;;
15153;SDS011;7677;41.896;25.004;2022-10-01T03:19:31;2.03;;;1.90;;
15153;SDS011;7677;41.896;25.004;2022-10-01T03:22:00;4.03;;;2.50;;
15153;SDS011;7677;41.896;25.004;2022-10-01T03:24:27;2.50;;;2.30;;
15153;SDS011;7677;41.896;25.004;2022-10-01T03:26:54;2.63;;;2.30;;
15153;SDS011;7677;41.896;25.004;2022-10-01T03:29:21;3.63;;;2.40;;
15153;SDS011;7677;41.896;25.004;2022-10-01T03:31:48;2.47;;;2.27;;
15153;SDS011;7677;41.896;25.004;2022-10-01T03:34:16;2.33;;;2.17;;
15153;SDS011;7677;41.896;25.004;2022-10-01T03:36:43;3.10;;;2.33;;
15153;SDS011;7677;41.896;25.004;2022-10-01T03:39:12;2.25;;;2.10;;
15153;SDS011;7677;41.896;25.004;2022-10-01T03:41:40;2.70;;;2.50;;
15153;SDS011;7677;41.896;25.004;2022-10-01T03:44:07;4.30;;;2.70;;
15153;SDS011;7677;41.896;25.004;2022-10-01T03:46:34;2.35;;;2.05;;
15153;SDS011;7677;41.896;25.004;2022-10-01T03:49:01;4.57;;;2.75;;
15153;SDS011;7677;41.896;25.004;2022-10-01T03:51:29;3.72;;;2.20;;
15153;SDS011;7677;41.896;25.004;2022-10-01T03:53:57;2.75;;;2.45;;
15153;SDS011;7677;41.896;25.004;2022-10-01T03:56:26;2.38;;;2.17;;
15153;SDS011;7677;41.896;25.004;2022-10-01T03:58:53;2.40;;;2.20;;
15153;SDS011;7677;41.896;25.004;2022-10-01T04:01:20;2.45;;;2.25;;
15153;SDS011;7677;41.896;25.004;2022-10-01T04:03:47;2.50;;;2.30;;
15153;SDS011;7677;41.896;25.004;2022-10-01T04:06:16;2.40;;;2.20;;
15153;SDS011;7677;41.896;25.004;2022-10-01T04:08:43;2.00;;;1.90;;
15153;SDS011;7677;41.896;25.004;2022-10-01T04:11:10;2.67;;;2.45;;
15153;SDS011;7677;41.896;25.004;2022-10-01T04:13:39;2.50;;;2.30;;
15153;SDS011;7677;41.896;25.004;2022-10-01T04:16:06;2.22;;;2.03;;
15153;SDS011;7677;41.896;25.004;2022-10-01T04:18:33;2.95;;;2.65;;
15153;SDS011;7677;41.896;25.004;2022-10-01T04:21:01;3.35;;;2.72;;
15153;SDS011;7677;41.896;25.004;2022-10-01T04:23:28;2.50;;;2.30;;
15153;SDS011;7677;41.896;25.004;2022-10-01T04:25:57;2.40;;;2.20;;
15153;SDS011;7677;41.896;25.004;2022-10-01T04:28:25;2.72;;;2.53;;
15153;SDS011;7677;41.896;25.004;2022-10-01T04:30:53;2.80;;;2.60;;
15153;SDS011;7677;41.896;25.004;2022-10-01T04:33:42;2.65;;;2.45;;
15153;SDS011;7677;41.896;25.004;2022-10-01T04:36:09;2.90;;;2.60;;
15153;SDS011;7677;41.896;25.004;2022-10-01T04:38:37;2.53;;;2.33;;
15153;SDS011;7677;41.896;25.004;2022-10-01T04:41:04;2.53;;;2.33;;
15153;SDS011;7677;41.896;25.004;2022-10-01T04:43:33;2.65;;;2.45;;
15153;SDS011;7677;41.896;25.004;2022-10-01T04:46:01;2.67;;;2.17;;
15153;SDS011;7677;41.896;25.004;2022-10-01T04:48:28;3.17;;;2.30;;
15153;SDS011;7677;41.896;25.004;2022-10-01T04:50:55;3.33;;;2.60;;
15153;SDS011;7677;41.896;25.004;2022-10-01T04:53:22;4.70;;;2.83;;
15153;SDS011;7677;41.896;25.004;2022-10-01T04:55:50;2.47;;;2.27;;
15153;SDS011;7677;41.896;25.004;2022-10-01T04:58:17;3.10;;;2.87;;
15153;SDS011;7677;41.896;25.004;2022-10-01T05:00:44;3.33;;;3.03;;
15153;SDS011;7677;41.896;25.004;2022-10-01T05:03:12;2.53;;;2.33;;
15153;SDS011;7677;41.896;25.004;2022-10-01T05:05:40;2.60;;;2.40;;
15153;SDS011;7677;41.896;25.004;2022-10-01T05:08:07;3.17;;;2.50;;
15153;SDS011;7677;41.896;25.004;2022-10-01T05:10:34;2.30;;;2.10;;
15153;SDS011;7677;41.896;25.004;2022-10-01T05:13:01;3.10;;;2.50;;
15153;SDS011;7677;41.896;25.004;2022-10-01T05:15:28;2.63;;;2.43;;
15153;SDS011;7677;41.896;25.004;2022-10-01T05:17:56;2.50;;;2.30;;
15153;SDS011;7677;41.896;25.004;2022-10-01T05:20:26;2.63;;;2.43;;
15153;SDS011;7677;41.896;25.004;2022-10-01T05:22:53;2.93;;;2.63;;
15153;SDS011;7677;41.896;25.004;2022-10-01T05:25:21;3.87;;;2.37;;
15153;SDS011;7677;41.896;25.004;2022-10-01T05:27:48;3.07;;;2.73;;
15153;SDS011;7677;41.896;25.004;2022-10-01T05:30:15;2.77;;;2.57;;
15153;SDS011;7677;41.896;25.004;2022-10-01T05:32:54;2.40;;;2.20;;
15153;SDS011;7677;41.896;25.004;2022-10-01T05:35:23;3.10;;;2.57;;
15153;SDS011;7677;41.896;25.004;2022-10-01T05:37:52;3.10;;;2.47;;
15153;SDS011;7677;41.896;25.004;2022-10-01T05:40:20;3.37;;;2.60;;
15153;SDS011;7677;41.896;25.004;2022-10-01T05:42:52;2.90;;;2.70;;
15153;SDS011;7677;41.896;25.004;2022-10-01T05:45:20;2.67;;;2.47;;
15153;SDS011;7677;41.896;25.004;2022-10-01T05:47:48;2.55;;;2.35;;
15153;SDS011;7677;41.896;25.004;2022-10-01T05:50:22;2.70;;;2.50;;
15153;SDS011;7677;41.896;25.004;2022-10-01T05:52:51;3.03;;;2.67;;
15153;SDS011;7677;41.896;25.004;2022-10-01T05:55:19;2.80;;;2.15;;
15153;SDS011;7677;41.896;25.004;2022-10-01T05:57:54;2.70;;;2.50;;
15153;SDS011;7677;41.896;25.004;2022-10-01T06:00:23;4.78;;;2.72;;
15153;SDS011;7677;41.896;25.004;2022-10-01T06:02:52;6.25;;;2.30;;
15153;SDS011;7677;41.896;25.004;2022-10-01T06:05:19;2.70;;;2.45;;
15153;SDS011;7677;41.896;25.004;2022-10-01T06:07:48;3.85;;;2.80;;
15153;SDS011;7677;41.896;25.004;2022-10-01T06:10:16;3.85;;;2.47;;
15153;SDS011;7677;41.896;25.004;2022-10-01T06:12:43;4.05;;;2.90;;
15153;SDS011;7677;41.896;25.004;2022-10-01T06:15:10;3.13;;;2.83;;
15153;SDS011;7677;41.896;25.004;2022-10-01T06:17:38;2.80;;;2.42;;
15153;SDS011;7677;41.896;25.004;2022-10-01T06:20:10;3.03;;;2.53;;
15153;SDS011;7677;41.896;25.004;2022-10-01T06:22:39;2.80;;;2.45;;
15153;SDS011;7677;41.896;25.004;2022-10-01T06:25:09;2.35;;;2.15;;
15153;SDS011;7677;41.896;25.004;2022-10-01T06:27:36;2.63;;;2.40;;
15153;SDS011;7677;41.896;25.004;2022-10-01T06:30:04;2.40;;;2.20;;
15153;SDS011;7677;41.896;25.004;2022-10-01T06:32:32;3.42;;;2.88;;
15153;SDS011;7677;41.896;25.004;2022-10-01T06:35:00;2.38;;;2.17;;
15153;SDS011;7677;41.896;25.004;2022-10-01T06:37:27;3.13;;;2.58;;
15153;SDS011;7677;41.896;25.004;2022-10-01T06:39:54;2.35;;;2.15;;
15153;SDS011;7677;41.896;25.004;2022-10-01T06:42:23;3.75;;;2.85;;
15153;SDS011;7677;41.896;25.004;2022-10-01T06:44:50;3.63;;;3.20;;
15153;SDS011;7677;41.896;25.004;2022-10-01T06:47:17;3.13;;;2.83;;
15153;SDS011;7677;41.896;25.004;2022-10-01T06:49:44;4.10;;;3.10;;
15153;SDS011;7677;41.896;25.004;2022-10-01T06:52:11;2.70;;;2.50;;
15153;SDS011;7677;41.896;25.004;2022-10-01T06:54:55;2.85;;;2.55;;
15153;SDS011;7677;41.896;25.004;2022-10-01T06:57:26;3.05;;;2.75;;
15153;SDS011;7677;41.896;25.004;2022-10-01T06:59:53;5.03;;;3.15;;
15153;SDS011;7677;41.896;25.004;2022-10-01T07:02:23;2.95;;;2.50;;
15153;SDS011;7677;41.896;25.004;2022-10-01T07:04:54;2.92;;;2.70;;
15153;SDS011;7677;41.896;25.004;2022-10-01T07:07:24;2.70;;;2.38;;
15153;SDS011;7677;41.896;25.004;2022-10-01T07:09:54;4.40;;;2.67;;
15153;SDS011;7677;41.896;25.004;2022-10-01T07:12:22;3.50;;;2.50;;
15153;SDS011;7677;41.896;25.004;2022-10-01T07:14:50;2.85;;;2.65;;
15153;SDS011;7677;41.896;25.004;2022-10-01T07:17:18;3.75;;;2.63;;
15153;SDS011;7677;41.896;25.004;2022-10-01T07:19:45;3.58;;;2.90;;
15153;SDS011;7677;41.896;25.004;2022-10-01T07:22:12;3.05;;;2.75;;
15153;SDS011;7677;41.896;25.004;2022-10-01T07:24:39;3.45;;;3.00;;
15153;SDS011;7677;41.896;25.004;2022-10-01T07:27:07;3.13;;;2.83;;
15153;SDS011;7677;41.896;25.004;2022-10-01T07:29:34;2.80;;;2.53;;
15153;SDS011;7677;41.896;25.004;2022-10-01T07:32:03;3.30;;;2.95;;
15153;SDS011;7677;41.896;25.004;2022-10-01T07:34:33;4.35;;;3.20;;
15153;SDS011;7677;41.896;25.004;2022-10-01T07:37:01;5.50;;;3.33;;
15153;SDS011;7677;41.896;25.004;2022-10-01T07:39:28;3.78;;;3.00;;
15153;SDS011;7677;41.896;25.004;2022-10-01T07:41:56;3.20;;;2.90;;
15153;SDS011;7677;41.896;25.004;2022-10-01T07:44:23;6.75;;;3.58;;
15153;SDS011;7677;41.896;25.004;2022-10-01T07:46:50;2.90;;;2.60;;
15153;SDS011;7677;41.896;25.004;2022-10-01T07:49:19;3.15;;;2.85;;
15153;SDS011;7677;41.896;25.004;2022-10-01T07:51:48;2.65;;;2.00;;
15153;SDS011;7677;41.896;25.004;2022-10-01T07:54:15;2.13;;;2.03;;
15153;SDS011;7677;41.896;25.004;2022-10-01T07:56:43;3.38;;;2.85;;
15153;SDS011;7677;41.896;25.004;2022-10-01T07:59:10;3.70;;;2.72;;
15153;SDS011;7677;41.896;25.004;2022-10-01T08:01:37;2.50;;;2.30;;
15153;SDS011;7677;41.896;25.004;2022-10-01T08:04:04;3.22;;;2.40;;
15153;SDS011;7677;41.896;25.004;2022-10-01T08:06:46;3.08;;;2.67;;
15153;SDS011;7677;41.896;25.004;2022-10-01T08:09:14;3.50;;;2.97;;
15153;SDS011;7677;41.896;25.004;2022-10-01T08:11:41;3.10;;;2.85;;
15153;SDS011;7677;41.896;25.004;2022-10-01T08:14:09;2.88;;;2.67;;
15153;SDS011;7677;41.896;25.004;2022-10-01T08:16:37;4.15;;;2.63;;
15153;SDS011;7677;41.896;25.004;2022-10-01T08:19:05;5.57;;;2.55;;
15153;SDS011;7677;41.896;25.004;2022-10-01T08:21:32;2.58;;;2.38;;
15153;SDS011;7677;41.896;25.004;2022-10-01T08:24:02;3.30;;;2.95;;
15153;SDS011;7677;41.896;25.004;2022-10-01T08:26:30;3.50;;;3.17;;
15153;SDS011;7677;41.896;25.004;2022-10-01T08:28:57;2.50;;;2.30;;
15153;SDS011;7677;41.896;25.004;2022-10-01T08:31:24;3.10;;;2.65;;
15153;SDS011;7677;41.896;25.004;2022-10-01T08:33:52;2.75;;;2.55;;
15153;SDS011;7677;41.896;25.004;2022-10-01T08:36:19;2.88;;;2.67;;
15153;SDS011;7677;41.896;25.004;2022-10-01T08:38:46;3.63;;;3.17;;
15153;SDS011;7677;41.896;25.004;2022-10-01T08:41:19;3.80;;;2.92;;
15153;SDS011;7677;41.896;25.004;2022-10-01T08:43:54;4.97;;;3.85;;
15153;SDS011;7677;41.896;25.004;2022-10-01T08:46:23;3.30;;;3.00;;
15153;SDS011;7677;41.896;25.004;2022-10-01T08:48:54;3.22;;;2.67;;
15153;SDS011;7677;41.896;25.004;2022-10-01T08:51:25;3.70;;;2.63;;
15153;SDS011;7677;41.896;25.004;2022-10-01T08:53:57;3.13;;;2.83;;
15153;SDS011;7677;41.896;25.004;2022-10-01T08:56:29;3.05;;;2.78;;
15153;SDS011;7677;41.896;25.004;2022-10-01T08:58:58;3.92;;;2.70;;
15153;SDS011;7677;41.896;25.004;2022-10-01T09:01:26;4.18;;;2.50;;
15153;SDS011;7677;41.896;25.004;2022-10-01T09:03:54;3.17;;;2.85;;
15153;SDS011;7677;41.896;25.004;2022-10-01T09:06:21;3.83;;;2.80;;
15153;SDS011;7677;41.896;25.004;2022-10-01T09:11:55;4.00;;;2.35;;
15153;SDS011;7677;41.896;25.004;2022-10-01T09:14:40;2.70;;;2.50;;
15153;SDS011;7677;41.896;25.004;2022-10-01T09:17:15;2.95;;;2.45;;
15153;SDS011;7677;41.896;25.004;2022-10-01T09:19:50;4.63;;;2.90;;
15153;SDS011;7677;41.896;25.004;2022-10-01T09:22:27;2.78;;;2.55;;
15153;SDS011;7677;41.896;25.004;2022-10-01T09:25:02;3.42;;;2.80;;
15153;SDS011;7677;41.896;25.004;2022-10-01T09:27:38;3.13;;;2.83;;
15153;SDS011;7677;41.896;25.004;2022-10-01T09:30:09;3.05;;;2.75;;
15153;SDS011;7677;41.896;25.004;2022-10-01T09:32:39;2.60;;;2.40;;
15153;SDS011;7677;41.896;25.004;2022-10-01T09:35:12;2.67;;;2.47;;
15153;SDS011;7677;41.896;25.004;2022-10-01T09:37:47;3.58;;;2.70;;
15153;SDS011;7677;41.896;25.004;2022-10-01T09:40:20;3.33;;;2.70;;
15153;SDS011;7677;41.896;25.004;2022-10-01T09:42:52;3.95;;;2.65;;
15153;SDS011;7677;41.896;25.004;2022-10-01T09:45:19;2.70;;;2.50;;
15153;SDS011;7677;41.896;25.004;2022-10-01T09:47:48;2.63;;;2.42;;
15153;SDS011;7677;41.896;25.004;2022-10-01T09:50:17;2.70;;;2.50;;
15153;SDS011;7677;41.896;25.004;2022-10-01T09:52:48;3.20;;;2.90;;
15153;SDS011;7677;41.896;25.004;2022-10-01T09:55:19;2.53;;;2.33;;
15153;SDS011;7677;41.896;25.004;2022-10-01T09:57:55;5.25;;;2.72;;
15153;SDS011;7677;41.896;25.004;2022-10-01T10:00:25;2.55;;;2.30;;
15153;SDS011;7677;41.896;25.004;2022-10-01T10:02:53;2.88;;;2.40;;
15153;SDS011;7677;41.896;25.004;2022-10-01T10:05:21;2.72;;;2.53;;
15153;SDS011;7677;41.896;25.004;2022-10-01T10:07:50;6.03;;;2.72;;
15153;SDS011;7677;41.896;25.004;2022-10-01T10:10:21;2.78;;;2.58;;
15153;SDS011;7677;41.896;25.004;2022-10-01T10:12:55;2.65;;;2.20;;
15153;SDS011;7677;41.896;25.004;2022-10-01T10:15:23;2.83;;;2.50;;
15153;SDS011;7677;41.896;25.004;2022-10-01T10:17:51;2.78;;;2.58;;
15153;SDS011;7677;41.896;25.004;2022-10-01T10:20:22;3.90;;;2.85;;
15153;SDS011;7677;41.896;25.004;2022-10-01T10:22:51;3.33;;;3.03;;
15153;SDS011;7677;41.896;25.004;2022-10-01T10:25:20;2.80;;;2.60;;
15153;SDS011;7677;41.896;25.004;2022-10-01T10:27:50;3.60;;;2.75;;
15153;SDS011;7677;41.896;25.004;2022-10-01T10:30:21;5.57;;;2.78;;
15153;SDS011;7677;41.896;25.004;2022-10-01T10:32:50;2.85;;;2.65;;
15153;SDS011;7677;41.896;25.004;2022-10-01T10:35:19;2.95;;;2.75;;
15153;SDS011;7677;41.896;25.004;2022-10-01T10:37:49;2.50;;;2.30;;
15153;SDS011;7677;41.896;25.004;2022-10-01T10:40:19;3.92;;;3.60;;
15153;SDS011;7677;41.896;25.004;2022-10-01T10:42:48;3.90;;;3.35;;
15153;SDS011;7677;41.896;25.004;2022-10-01T10:45:17;2.67;;;2.47;;
15153;SDS011;7677;41.896;25.004;2022-10-01T10:47:47;3.95;;;2.83;;
15153;SDS011;7677;41.896;25.004;2022-10-01T10:50:23;2.75;;;2.50;;
15153;SDS011;7677;41.896;25.004;2022-10-01T10:52:54;3.75;;;3.00;;
15153;SDS011;7677;41.896;25.004;2022-10-01T10:55:23;3.22;;;2.90;;
15153;SDS011;7677;41.896;25.004;2022-10-01T10:57:52;2.50;;;2.28;;
15153;SDS011;7677;41.896;25.004;2022-10-01T11:00:20;4.32;;;3.17;;
15153;SDS011;7677;41.896;25.004;2022-10-01T11:02:52;3.00;;;2.80;;
15153;SDS011;7677;41.896;25.004;2022-10-01T11:05:23;3.10;;;2.80;;
15153;SDS011;7677;41.896;25.004;2022-10-01T11:07:56;3.10;;;2.80;;
15153;SDS011;7677;41.896;25.004;2022-10-01T11:10:31;4.53;;;2.60;;
15153;SDS011;7677;41.896;25.004;2022-10-01T11:16:08;6.20;;;4.75;;
15153;SDS011;7677;41.896;25.004;2022-10-01T11:19:00;5.85;;;4.85;;
15153;SDS011;7677;41.896;25.004;2022-10-01T11:21:39;3.72;;;3.42;;
15153;SDS011;7677;41.896;25.004;2022-10-01T11:24:18;6.15;;;3.58;;
15153;SDS011;7677;41.896;25.004;2022-10-01T11:26:58;4.47;;;3.55;;
15153;SDS011;7677;41.896;25.004;2022-10-01T11:29:34;5.50;;;4.13;;
15153;SDS011;7677;41.896;25.004;2022-10-01T11:32:08;9.50;;;6.20;;
15153;SDS011;7677;41.896;25.004;2022-10-01T11:34:51;8.95;;;5.18;;
15153;SDS011;7677;41.896;25.004;2022-10-01T11:37:34;5.25;;;4.60;;
15153;SDS011;7677;41.896;25.004;2022-10-01T11:40:11;7.32;;;4.82;;
15153;SDS011;7677;41.896;25.004;2022-10-01T11:42:41;7.00;;;4.32;;
15153;SDS011;7677;41.896;25.004;2022-10-01T11:45:13;5.82;;;3.75;;
15153;SDS011;7677;41.896;25.004;2022-10-01T11:47:45;8.20;;;5.25;;
15153;SDS011;7677;41.896;25.004;2022-10-01T11:50:18;5.63;;;4.40;;
15153;SDS011;7677;41.896;25.004;2022-10-01T11:52:52;4.57;;;3.55;;
15153;SDS011;7677;41.896;25.004;2022-10-01T11:55:24;2.60;;;2.40;;
15153;SDS011;7677;41.896;25.004;2022-10-01T11:58:12;3.15;;;2.85;;
15153;SDS011;7677;41.896;25.004;2022-10-01T12:01:01;5.28;;;2.95;;
15153;SDS011;7677;41.896;25.004;2022-10-01T12:03:33;3.25;;;2.95;;
15153;SDS011;7677;41.896;25.004;2022-10-01T12:06:05;4.00;;;2.88;;
15153;SDS011;7677;41.896;25.004;2022-10-01T12:08:34;3.95;;;3.30;;
15153;SDS011;7677;41.896;25.004;2022-10-01T12:11:04;4.22;;;3.50;;
15153;SDS011;7677;41.896;25.004;2022-10-01T12:13:37;3.42;;;3.10;;
15153;SDS011;7677;41.896;25.004;2022-10-01T12:16:10;3.78;;;3.08;;
15153;SDS011;7677;41.896;25.004;2022-10-01T12:18:44;4.30;;;3.85;;
15153;SDS011;7677;41.896;25.004;2022-10-01T12:21:18;4.03;;;3.38;;
15153;SDS011;7677;41.896;25.004;2022-10-01T12:23:50;14.82;;;8.27;;
15153;SDS011;7677;41.896;25.004;2022-10-01T12:26:22;13.40;;;8.23;;
15153;SDS011;7677;41.896;25.004;2022-10-01T12:28:55;19.63;;;14.23;;
15153;SDS011;7677;41.896;25.004;2022-10-01T12:31:24;7.13;;;5.00;;
15153;SDS011;7677;41.896;25.004;2022-10-01T12:34:00;7.95;;;5.45;;
15153;SDS011;7677;41.896;25.004;2022-10-01T12:36:37;5.60;;;3.42;;
15153;SDS011;7677;41.896;25.004;2022-10-01T12:39:14;3.60;;;3.22;;
15153;SDS011;7677;41.896;25.004;2022-10-01T12:41:50;3.35;;;3.03;;
15153;SDS011;7677;41.896;25.004;2022-10-01T12:44:35;3.20;;;2.90;;
15153;SDS011;7677;41.896;25.004;2022-10-01T12:47:16;3.40;;;3.10;;
15153;SDS011;7677;41.896;25.004;2022-10-01T12:49:53;5.00;;;3.45;;
15153;SDS011;7677;41.896;25.004;2022-10-01T12:52:29;3.22;;;2.80;;
15153;SDS011;7677;41.896;25.004;2022-10-01T12:58:07;3.25;;;2.95;;
15153;SDS011;7677;41.896;25.004;2022-10-01T13:00:41;2.47;;;2.28;;
15153;SDS011;7677;41.896;25.004;2022-10-01T13:03:24;3.55;;;3.25;;
15153;SDS011;7677;41.896;25.004;2022-10-01T13:06:08;3.70;;;2.90;;
15153;SDS011;7677;41.896;25.004;2022-10-01T13:08:52;3.08;;;2.85;;
15153;SDS011;7677;41.896;25.004;2022-10-01T13:11:30;3.50;;;2.67;;
15153;SDS011;7677;41.896;25.004;2022-10-01T13:14:09;2.95;;;2.75;;
15153;SDS011;7677;41.896;25.004;2022-10-01T13:16:38;2.88;;;2.45;;
15153;SDS011;7677;41.896;25.004;2022-10-01T13:19:08;3.30;;;2.60;;
15153;SDS011;7677;41.896;25.004;2022-10-01T13:21:44;3.00;;;2.78;;
15153;SDS011;7677;41.896;25.004;2022-10-01T13:24:23;2.72;;;2.38;;
15153;SDS011;7677;41.896;25.004;2022-10-01T13:26:56;2.42;;;2.15;;
15153;SDS011;7677;41.896;25.004;2022-10-01T13:29:40;2.40;;;2.20;;
15153;SDS011;7677;41.896;25.004;2022-10-01T13:32:23;3.35;;;2.85;;
15153;SDS011;7677;41.896;25.004;2022-10-01T13:34:58;3.45;;;2.40;;
15153;SDS011;7677;41.896;25.004;2022-10-01T13:37:31;2.72;;;2.47;;
15153;SDS011;7677;41.896;25.004;2022-10-01T13:40:17;3.47;;;2.60;;
15153;SDS011;7677;41.896;25.004;2022-10-01T13:42:48;3.22;;;2.60;;
15153;SDS011;7677;41.896;25.004;2022-10-01T13:45:20;2.55;;;2.35;;
15153;SDS011;7677;41.896;25.004;2022-10-01T13:48:03;3.13;;;2.83;;
15153;SDS011;7677;41.896;25.004;2022-10-01T13:50:39;3.60;;;2.83;;
15153;SDS011;7677;41.896;25.004;2022-10-01T13:53:19;3.58;;;2.47;;
15153;SDS011;7677;41.896;25.004;2022-10-01T13:55:49;3.45;;;3.15;;
15153;SDS011;7677;41.896;25.004;2022-10-01T13:58:22;3.00;;;2.25;;
15153;SDS011;7677;41.896;25.004;2022-10-01T14:00:51;5.60;;;3.28;;
15153;SDS011;7677;41.896;25.004;2022-10-01T14:03:33;8.00;;;3.53;;
15153;SDS011;7677;41.896;25.004;2022-10-01T14:06:05;3.80;;;3.20;;
15153;SDS011;7677;41.896;25.004;2022-10-01T14:08:37;4.20;;;2.90;;
15153;SDS011;7677;41.896;25.004;2022-10-01T14:11:10;3.72;;;2.63;;
15153;SDS011;7677;41.896;25.004;2022-10-01T14:13:57;2.85;;;1.95;;
15153;SDS011;7677;41.896;25.004;2022-10-01T14:16:47;6.35;;;2.72;;
15153;SDS011;7677;41.896;25.004;2022-10-01T14:19:17;2.65;;;2.30;;
15153;SDS011;7677;41.896;25.004;2022-10-01T14:21:49;2.40;;;2.20;;
15153;SDS011;7677;41.896;25.004;2022-10-01T14:24:31;4.60;;;2.35;;
15153;SDS011;7677;41.896;25.004;2022-10-01T14:27:10;2.95;;;2.00;;
15153;SDS011;7677;41.896;25.004;2022-10-01T14:29:42;2.08;;;1.88;;
15153;SDS011;7677;41.896;25.004;2022-10-01T14:32:18;4.97;;;2.13;;
15153;SDS011;7677;41.896;25.004;2022-10-01T14:35:01;2.50;;;2.30;;
15153;SDS011;7677;41.896;25.004;2022-10-01T14:37:36;2.15;;;1.98;;
15153;SDS011;7677;41.896;25.004;2022-10-01T14:40:08;2.58;;;2.08;;
15153;SDS011;7677;41.896;25.004;2022-10-01T14:42:42;5.50;;;3.30;;
15153;SDS011;7677;41.896;25.004;2022-10-01T14:45:13;4.68;;;2.72;;
15153;SDS011;7677;41.896;25.004;2022-10-01T14:47:41;3.97;;;2.40;;
15153;SDS011;7677;41.896;25.004;2022-10-01T14:50:09;2.47;;;2.13;;
15153;SDS011;7677;41.896;25.004;2022-10-01T14:52:46;8.50;;;3.88;;
15153;SDS011;7677;41.896;25.004;2022-10-01T14:55:15;5.18;;;3.03;;
15153;SDS011;7677;41.896;25.004;2022-10-01T14:57:47;5.68;;;3.25;;
15153;SDS011;7677;41.896;25.004;2022-10-01T15:00:16;4.55;;;2.60;;
15153;SDS011;7677;41.896;25.004;2022-10-01T15:02:44;4.03;;;2.20;;
15153;SDS011;7677;41.896;25.004;2022-10-01T15:05:16;4.80;;;2.92;;
15153;SDS011;7677;41.896;25.004;2022-10-01T15:07:46;2.22;;;2.03;;
15153;SDS011;7677;41.896;25.004;2022-10-01T15:10:15;2.42;;;2.22;;
15153;SDS011;7677;41.896;25.004;2022-10-01T15:12:44;2.80;;;2.40;;
15153;SDS011;7677;41.896;25.004;2022-10-01T15:15:17;4.55;;;2.67;;
15153;SDS011;7677;41.896;25.004;2022-10-01T15:17:47;2.90;;;2.60;;
15153;SDS011;7677;41.896;25.004;2022-10-01T15:20:14;3.85;;;2.58;;
15153;SDS011;7677;41.896;25.004;2022-10-01T15:22:42;3.63;;;2.45;;